sensor_id;sensor_type;location;lat;lon;timestamp;P1;durP1;ratioP1;P2;durP2;ratioP2
21626;SDS011;10975;47.872;12.972;2023-12-22T00:31:48;1.38;;;0.40;;
21626;SDS011;10975;47.872;12.972;2023-12-22T00:34:15;1.85;;;0.30;;
21626;SDS011;10975;47.872;12.972;2023-12-22T00:36:42;0.30;;;0.30;;
21626;SDS011;10975;47.872;12.972;2023-12-22T00:39:09;1.08;;;0.50;;
21626;SDS011;10975;47.872;12.972;2023-12-22T00:41:35;3.10;;;0.40;;
21626;SDS011;10975;47.872;12.972;2023-12-22T00:44:02;0.22;;;0.17;;
21626;SDS011;10975;47.872;12.972;2023-12-22T00:46:29;1.75;;;0.30;;
21626;SDS011;10975;47.872;12.972;2023-12-22T00:48:56;0.28;;;0.20;;
21626;SDS011;10975;47.872;12.972;2023-12-22T00:51:23;0.47;;;0.20;;
21626;SDS011;10975;47.872;12.972;2023-12-22T00:53:50;2.08;;;0.60;;
21626;SDS011;10975;47.872;12.972;2023-12-22T00:56:16;2.85;;;0.70;;
21626;SDS011;10975;47.872;12.972;2023-12-22T00:58:43;0.70;;;0.20;;
21626;SDS011;10975;47.872;12.972;2023-12-22T01:01:20;0.88;;;0.20;;
21626;SDS011;10975;47.872;12.972;2023-12-22T01:03:47;1.45;;;0.40;;
21626;SDS011;10975;47.872;12.972;2023-12-22T01:06:14;0.60;;;0.30;;
21626;SDS011;10975;47.872;12.972;2023-12-22T01:08:41;0.80;;;0.60;;
21626;SDS011;10975;47.872;12.972;2023-12-22T01:11:08;1.35;;;0.65;;
21626;SDS011;10975;47.872;12.972;2023-12-22T01:13:35;1.38;;;0.50;;
21626;SDS011;10975;47.872;12.972;2023-12-22T01:16:01;3.92;;;0.30;;
21626;SDS011;10975;47.872;12.972;2023-12-22T01:18:28;0.95;;;0.40;;
21626;SDS011;10975;47.872;12.972;2023-12-22T01:20:56;0.68;;;0.68;;
21626;SDS011;10975;47.872;12.972;2023-12-22T01:23:23;0.80;;;0.20;;
21626;SDS011;10975;47.872;12.972;2023-12-22T01:25:51;2.00;;;0.70;;
21626;SDS011;10975;47.872;12.972;2023-12-22T01:28:18;1.60;;;0.50;;
21626;SDS011;10975;47.872;12.972;2023-12-22T01:30:45;0.70;;;0.60;;
21626;SDS011;10975;47.872;12.972;2023-12-22T01:33:12;0.80;;;0.40;;
21626;SDS011;10975;47.872;12.972;2023-12-22T01:35:39;1.23;;;0.50;;
21626;SDS011;10975;47.872;12.972;2023-12-22T01:38:06;2.95;;;0.47;;
21626;SDS011;10975;47.872;12.972;2023-12-22T01:40:33;1.27;;;0.43;;
21626;SDS011;10975;47.872;12.972;2023-12-22T01:43:00;1.25;;;0.60;;
21626;SDS011;10975;47.872;12.972;2023-12-22T01:45:28;1.08;;;0.32;;
21626;SDS011;10975;47.872;12.972;2023-12-22T01:47:54;0.75;;;0.38;;
21626;SDS011;10975;47.872;12.972;2023-12-22T01:50:22;1.45;;;0.60;;
21626;SDS011;10975;47.872;12.972;2023-12-22T01:52:49;0.22;;;0.22;;
21626;SDS011;10975;47.872;12.972;2023-12-22T01:55:16;0.70;;;0.30;;
21626;SDS011;10975;47.872;12.972;2023-12-22T01:57:44;0.20;;;0.10;;
21626;SDS011;10975;47.872;12.972;2023-12-22T02:00:13;2.83;;;0.45;;
21626;SDS011;10975;47.872;12.972;2023-12-22T02:02:41;0.47;;;0.15;;
21626;SDS011;10975;47.872;12.972;2023-12-22T02:05:09;0.80;;;0.20;;
21626;SDS011;10975;47.872;12.972;2023-12-22T02:07:41;0.73;;;0.20;;
21626;SDS011;10975;47.872;12.972;2023-12-22T02:10:08;1.13;;;0.20;;
21626;SDS011;10975;47.872;12.972;2023-12-22T02:12:37;0.17;;;0.17;;
21626;SDS011;10975;47.872;12.972;2023-12-22T02:15:04;0.57;;;0.25;;
21626;SDS011;10975;47.872;12.972;2023-12-22T02:17:33;0.50;;;0.35;;
21626;SDS011;10975;47.872;12.972;2023-12-22T02:20:04;0.28;;;0.20;;
21626;SDS011;10975;47.872;12.972;2023-12-22T02:22:33;1.15;;;0.15;;
21626;SDS011;10975;47.872;12.972;2023-12-22T02:25:00;0.20;;;0.20;;
21626;SDS011;10975;47.872;12.972;2023-12-22T02:29:57;0.20;;;0.20;;
21626;SDS011;10975;47.872;12.972;2023-12-22T02:32:36;0.22;;;0.22;;
21626;SDS011;10975;47.872;12.972;2023-12-22T02:35:08;0.60;;;0.20;;
21626;SDS011;10975;47.872;12.972;2023-12-22T02:37:38;0.20;;;0.20;;
21626;SDS011;10975;47.872;12.972;2023-12-22T02:40:07;0.63;;;0.20;;
21626;SDS011;10975;47.872;12.972;2023-12-22T02:42:35;0.17;;;0.17;;
21626;SDS011;10975;47.872;12.972;2023-12-22T02:45:04;0.32;;;0.20;;
21626;SDS011;10975;47.872;12.972;2023-12-22T02:47:32;0.45;;;0.40;;
21626;SDS011;10975;47.872;12.972;2023-12-22T02:49:59;0.57;;;0.20;;
21626;SDS011;10975;47.872;12.972;2023-12-22T02:52:26;0.35;;;0.30;;
21626;SDS011;10975;47.872;12.972;2023-12-22T02:54:53;0.20;;;0.10;;
21626;SDS011;10975;47.872;12.972;2023-12-22T02:57:20;0.80;;;0.20;;
21626;SDS011;10975;47.872;12.972;2023-12-22T02:59:47;0.20;;;0.10;;
21626;SDS011;10975;47.872;12.972;2023-12-22T03:02:13;0.25;;;0.13;;
21626;SDS011;10975;47.872;12.972;2023-12-22T03:04:41;0.10;;;0.10;;
21626;SDS011;10975;47.872;12.972;2023-12-22T03:07:07;0.17;;;0.10;;
21626;SDS011;10975;47.872;12.972;2023-12-22T03:09:34;1.08;;;0.10;;
21626;SDS011;10975;47.872;12.972;2023-12-22T03:12:04;1.95;;;0.10;;
21626;SDS011;10975;47.872;12.972;2023-12-22T03:14:32;0.20;;;0.10;;
21626;SDS011;10975;47.872;12.972;2023-12-22T03:17:00;0.00;;;0.00;;
21626;SDS011;10975;47.872;12.972;2023-12-22T03:19:27;0.10;;;0.10;;
21626;SDS011;10975;47.872;12.972;2023-12-22T03:21:54;0.10;;;0.10;;
21626;SDS011;10975;47.872;12.972;2023-12-22T03:24:23;0.20;;;0.17;;
21626;SDS011;10975;47.872;12.972;2023-12-22T03:26:53;1.00;;;0.10;;
21626;SDS011;10975;47.872;12.972;2023-12-22T03:29:23;0.47;;;0.25;;
21626;SDS011;10975;47.872;12.972;2023-12-22T03:31:49;0.95;;;0.30;;
21626;SDS011;10975;47.872;12.972;2023-12-22T03:34:16;0.70;;;0.00;;
21626;SDS011;10975;47.872;12.972;2023-12-22T03:36:43;0.38;;;0.22;;
21626;SDS011;10975;47.872;12.972;2023-12-22T03:39:17;0.40;;;0.20;;
21626;SDS011;10975;47.872;12.972;2023-12-22T03:41:44;0.65;;;0.10;;
21626;SDS011;10975;47.872;12.972;2023-12-22T03:44:11;0.75;;;0.20;;
21626;SDS011;10975;47.872;12.972;2023-12-22T03:46:38;0.20;;;0.20;;
21626;SDS011;10975;47.872;12.972;2023-12-22T03:49:04;0.45;;;0.45;;
21626;SDS011;10975;47.872;12.972;2023-12-22T03:51:31;0.50;;;0.20;;
21626;SDS011;10975;47.872;12.972;2023-12-22T03:53:58;0.40;;;0.10;;
21626;SDS011;10975;47.872;12.972;2023-12-22T03:56:25;0.52;;;0.20;;
21626;SDS011;10975;47.872;12.972;2023-12-22T03:58:52;0.30;;;0.20;;
21626;SDS011;10975;47.872;12.972;2023-12-22T04:01:19;0.68;;;0.20;;
21626;SDS011;10975;47.872;12.972;2023-12-22T04:03:46;0.17;;;0.10;;
21626;SDS011;10975;47.872;12.972;2023-12-22T04:06:12;0.30;;;0.20;;
21626;SDS011;10975;47.872;12.972;2023-12-22T04:08:39;0.20;;;0.20;;
21626;SDS011;10975;47.872;12.972;2023-12-22T04:11:06;0.38;;;0.20;;
21626;SDS011;10975;47.872;12.972;2023-12-22T04:13:33;0.20;;;0.20;;
21626;SDS011;10975;47.872;12.972;2023-12-22T04:16:00;0.10;;;0.10;;
21626;SDS011;10975;47.872;12.972;2023-12-22T04:18:31;0.30;;;0.20;;
21626;SDS011;10975;47.872;12.972;2023-12-22T04:20:58;1.02;;;0.25;;
21626;SDS011;10975;47.872;12.972;2023-12-22T04:23:25;0.20;;;0.20;;
21626;SDS011;10975;47.872;12.972;2023-12-22T04:25:52;0.30;;;0.30;;
21626;SDS011;10975;47.872;12.972;2023-12-22T04:28:19;0.45;;;0.15;;
21626;SDS011;10975;47.872;12.972;2023-12-22T04:30:46;0.43;;;0.28;;
21626;SDS011;10975;47.872;12.972;2023-12-22T04:33:13;0.20;;;0.20;;
21626;SDS011;10975;47.872;12.972;2023-12-22T04:35:40;0.20;;;0.20;;
21626;SDS011;10975;47.872;12.972;2023-12-22T04:38:07;0.65;;;0.30;;
21626;SDS011;10975;47.872;12.972;2023-12-22T04:40:34;0.20;;;0.20;;
21626;SDS011;10975;47.872;12.972;2023-12-22T04:43:02;0.20;;;0.20;;
21626;SDS011;10975;47.872;12.972;2023-12-22T04:45:29;0.20;;;0.20;;
21626;SDS011;10975;47.872;12.972;2023-12-22T04:47:56;0.40;;;0.30;;
21626;SDS011;10975;47.872;12.972;2023-12-22T04:50:24;0.10;;;0.10;;
21626;SDS011;10975;47.872;12.972;2023-12-22T04:56:47;0.10;;;0.10;;
21626;SDS011;10975;47.872;12.972;2023-12-22T04:59:19;0.28;;;0.20;;
21626;SDS011;10975;47.872;12.972;2023-12-22T05:01:46;0.13;;;0.10;;
21626;SDS011;10975;47.872;12.972;2023-12-22T05:05:29;0.20;;;0.20;;
21626;SDS011;10975;47.872;12.972;2023-12-22T05:07:56;0.08;;;0.08;;
21626;SDS011;10975;47.872;12.972;2023-12-22T05:10:23;0.47;;;0.30;;
21626;SDS011;10975;47.872;12.972;2023-12-22T05:12:50;0.22;;;0.22;;
21626;SDS011;10975;47.872;12.972;2023-12-22T05:15:17;0.20;;;0.20;;
21626;SDS011;10975;47.872;12.972;2023-12-22T05:17:44;0.20;;;0.20;;
21626;SDS011;10975;47.872;12.972;2023-12-22T05:20:11;0.20;;;0.20;;
21626;SDS011;10975;47.872;12.972;2023-12-22T05:22:38;0.20;;;0.20;;
21626;SDS011;10975;47.872;12.972;2023-12-22T05:25:05;0.90;;;0.40;;
21626;SDS011;10975;47.872;12.972;2023-12-22T05:27:48;0.55;;;0.40;;
21626;SDS011;10975;47.872;12.972;2023-12-22T05:30:16;0.45;;;0.30;;
21626;SDS011;10975;47.872;12.972;2023-12-22T05:32:43;0.50;;;0.50;;
21626;SDS011;10975;47.872;12.972;2023-12-22T05:35:11;0.73;;;0.43;;
21626;SDS011;10975;47.872;12.972;2023-12-22T05:37:38;0.30;;;0.30;;
21626;SDS011;10975;47.872;12.972;2023-12-22T05:40:05;0.40;;;0.35;;
21626;SDS011;10975;47.872;12.972;2023-12-22T05:42:36;0.47;;;0.40;;
21626;SDS011;10975;47.872;12.972;2023-12-22T05:45:03;0.85;;;0.60;;
21626;SDS011;10975;47.872;12.972;2023-12-22T05:47:32;0.73;;;0.40;;
21626;SDS011;10975;47.872;12.972;2023-12-22T05:49:59;1.10;;;0.60;;
21626;SDS011;10975;47.872;12.972;2023-12-22T05:52:26;3.50;;;1.75;;
21626;SDS011;10975;47.872;12.972;2023-12-22T05:54:53;2.92;;;2.60;;
21626;SDS011;10975;47.872;12.972;2023-12-22T05:57:21;1.75;;;0.50;;
21626;SDS011;10975;47.872;12.972;2023-12-22T05:59:48;0.47;;;0.40;;
21626;SDS011;10975;47.872;12.972;2023-12-22T06:02:15;0.85;;;0.75;;
21626;SDS011;10975;47.872;12.972;2023-12-22T06:04:41;0.85;;;0.38;;
21626;SDS011;10975;47.872;12.972;2023-12-22T06:07:08;0.40;;;0.25;;
21626;SDS011;10975;47.872;12.972;2023-12-22T06:09:36;0.40;;;0.40;;
21626;SDS011;10975;47.872;12.972;2023-12-22T06:12:03;0.60;;;0.30;;
21626;SDS011;10975;47.872;12.972;2023-12-22T06:14:31;0.40;;;0.30;;
21626;SDS011;10975;47.872;12.972;2023-12-22T06:16:58;0.30;;;0.30;;
21626;SDS011;10975;47.872;12.972;2023-12-22T06:19:25;0.10;;;0.10;;
21626;SDS011;10975;47.872;12.972;2023-12-22T06:21:54;0.20;;;0.10;;
21626;SDS011;10975;47.872;12.972;2023-12-22T06:24:21;0.00;;;0.00;;
21626;SDS011;10975;47.872;12.972;2023-12-22T06:26:48;0.10;;;0.10;;
21626;SDS011;10975;47.872;12.972;2023-12-22T06:29:15;0.13;;;0.10;;
21626;SDS011;10975;47.872;12.972;2023-12-22T06:31:42;0.20;;;0.20;;
21626;SDS011;10975;47.872;12.972;2023-12-22T06:34:09;0.35;;;0.10;;
21626;SDS011;10975;47.872;12.972;2023-12-22T06:36:36;0.30;;;0.28;;
21626;SDS011;10975;47.872;12.972;2023-12-22T06:39:03;0.20;;;0.20;;
21626;SDS011;10975;47.872;12.972;2023-12-22T06:41:30;0.38;;;0.38;;
21626;SDS011;10975;47.872;12.972;2023-12-22T06:43:59;1.10;;;0.50;;
21626;SDS011;10975;47.872;12.972;2023-12-22T06:46:27;0.20;;;0.10;;
21626;SDS011;10975;47.872;12.972;2023-12-22T06:48:55;0.30;;;0.30;;
21626;SDS011;10975;47.872;12.972;2023-12-22T06:51:27;0.35;;;0.20;;
21626;SDS011;10975;47.872;12.972;2023-12-22T06:54:01;0.20;;;0.20;;
21626;SDS011;10975;47.872;12.972;2023-12-22T06:56:29;0.20;;;0.20;;
21626;SDS011;10975;47.872;12.972;2023-12-22T06:58:57;0.22;;;0.10;;
21626;SDS011;10975;47.872;12.972;2023-12-22T07:01:26;0.20;;;0.20;;
21626;SDS011;10975;47.872;12.972;2023-12-22T07:03:53;0.17;;;0.15;;
21626;SDS011;10975;47.872;12.972;2023-12-22T07:06:20;0.20;;;0.20;;
21626;SDS011;10975;47.872;12.972;2023-12-22T07:11:39;0.38;;;0.30;;
21626;SDS011;10975;47.872;12.972;2023-12-22T07:14:07;0.95;;;0.47;;
21626;SDS011;10975;47.872;12.972;2023-12-22T07:16:37;0.57;;;0.30;;
21626;SDS011;10975;47.872;12.972;2023-12-22T07:19:04;1.20;;;0.25;;
21626;SDS011;10975;47.872;12.972;2023-12-22T07:21:31;0.10;;;0.10;;
21626;SDS011;10975;47.872;12.972;2023-12-22T07:23:58;0.35;;;0.20;;
21626;SDS011;10975;47.872;12.972;2023-12-22T07:26:26;0.20;;;0.20;;
21626;SDS011;10975;47.872;12.972;2023-12-22T07:28:53;0.82;;;0.50;;
21626;SDS011;10975;47.872;12.972;2023-12-22T07:31:20;0.20;;;0.20;;
21626;SDS011;10975;47.872;12.972;2023-12-22T07:33:47;0.50;;;0.40;;
21626;SDS011;10975;47.872;12.972;2023-12-22T07:36:14;0.47;;;0.30;;
21626;SDS011;10975;47.872;12.972;2023-12-22T07:38:41;1.25;;;0.40;;
21626;SDS011;10975;47.872;12.972;2023-12-22T07:41:08;2.22;;;0.55;;
21626;SDS011;10975;47.872;12.972;2023-12-22T07:43:37;0.60;;;0.60;;
21626;SDS011;10975;47.872;12.972;2023-12-22T07:46:04;1.63;;;0.80;;
21626;SDS011;10975;47.872;12.972;2023-12-22T07:48:31;0.98;;;0.77;;
21626;SDS011;10975;47.872;12.972;2023-12-22T07:50:59;0.82;;;0.50;;
21626;SDS011;10975;47.872;12.972;2023-12-22T07:53:25;0.45;;;0.45;;
21626;SDS011;10975;47.872;12.972;2023-12-22T07:55:53;0.70;;;0.70;;
21626;SDS011;10975;47.872;12.972;2023-12-22T07:58:20;0.63;;;0.63;;
21626;SDS011;10975;47.872;12.972;2023-12-22T08:00:46;1.15;;;1.02;;
21626;SDS011;10975;47.872;12.972;2023-12-22T08:03:13;0.93;;;0.60;;
21626;SDS011;10975;47.872;12.972;2023-12-22T08:05:41;0.70;;;0.60;;
21626;SDS011;10975;47.872;12.972;2023-12-22T08:08:08;0.63;;;0.63;;
21626;SDS011;10975;47.872;12.972;2023-12-22T08:10:35;1.15;;;0.80;;
21626;SDS011;10975;47.872;12.972;2023-12-22T08:13:02;1.92;;;1.10;;
21626;SDS011;10975;47.872;12.972;2023-12-22T08:15:30;1.85;;;1.75;;
21626;SDS011;10975;47.872;12.972;2023-12-22T08:18:02;0.50;;;0.50;;
21626;SDS011;10975;47.872;12.972;2023-12-22T08:20:30;0.90;;;0.73;;
21626;SDS011;10975;47.872;12.972;2023-12-22T08:23:02;0.40;;;0.40;;
21626;SDS011;10975;47.872;12.972;2023-12-22T08:25:36;0.30;;;0.30;;
21626;SDS011;10975;47.872;12.972;2023-12-22T08:28:03;0.20;;;0.20;;
21626;SDS011;10975;47.872;12.972;2023-12-22T08:30:30;0.55;;;0.32;;
21626;SDS011;10975;47.872;12.972;2023-12-22T08:32:57;0.40;;;0.30;;
21626;SDS011;10975;47.872;12.972;2023-12-22T08:35:24;0.43;;;0.43;;
21626;SDS011;10975;47.872;12.972;2023-12-22T08:37:51;1.02;;;0.30;;
21626;SDS011;10975;47.872;12.972;2023-12-22T08:40:18;0.20;;;0.20;;
21626;SDS011;10975;47.872;12.972;2023-12-22T08:42:52;3.35;;;0.40;;
21626;SDS011;10975;47.872;12.972;2023-12-22T08:45:27;1.10;;;0.65;;
21626;SDS011;10975;47.872;12.972;2023-12-22T08:47:57;1.00;;;0.30;;
21626;SDS011;10975;47.872;12.972;2023-12-22T08:50:25;1.23;;;0.50;;
21626;SDS011;10975;47.872;12.972;2023-12-22T08:52:52;2.47;;;0.82;;
21626;SDS011;10975;47.872;12.972;2023-12-22T08:55:19;0.55;;;0.55;;
21626;SDS011;10975;47.872;12.972;2023-12-22T08:57:46;2.38;;;0.50;;
21626;SDS011;10975;47.872;12.972;2023-12-22T09:00:24;0.65;;;0.60;;
21626;SDS011;10975;47.872;12.972;2023-12-22T09:02:51;2.20;;;1.27;;
21626;SDS011;10975;47.872;12.972;2023-12-22T09:05:20;0.82;;;0.68;;
21626;SDS011;10975;47.872;12.972;2023-12-22T09:07:48;0.70;;;0.47;;
21626;SDS011;10975;47.872;12.972;2023-12-22T09:10:15;0.45;;;0.40;;
21626;SDS011;10975;47.872;12.972;2023-12-22T09:13:47;0.73;;;0.70;;
21626;SDS011;10975;47.872;12.972;2023-12-22T09:16:19;1.65;;;0.80;;
21626;SDS011;10975;47.872;12.972;2023-12-22T09:18:48;1.83;;;0.60;;
21626;SDS011;10975;47.872;12.972;2023-12-22T09:21:16;1.05;;;0.68;;
21626;SDS011;10975;47.872;12.972;2023-12-22T09:23:44;1.13;;;0.60;;
21626;SDS011;10975;47.872;12.972;2023-12-22T09:26:13;1.10;;;0.60;;
21626;SDS011;10975;47.872;12.972;2023-12-22T09:28:41;2.17;;;1.00;;
21626;SDS011;10975;47.872;12.972;2023-12-22T09:31:08;0.85;;;0.60;;
21626;SDS011;10975;47.872;12.972;2023-12-22T09:33:36;1.00;;;0.70;;
21626;SDS011;10975;47.872;12.972;2023-12-22T09:36:03;0.57;;;0.55;;
21626;SDS011;10975;47.872;12.972;2023-12-22T09:38:30;0.88;;;0.43;;
21626;SDS011;10975;47.872;12.972;2023-12-22T09:40:57;1.85;;;0.70;;
21626;SDS011;10975;47.872;12.972;2023-12-22T09:43:25;0.80;;;0.45;;
21626;SDS011;10975;47.872;12.972;2023-12-22T09:45:52;0.90;;;0.52;;
21626;SDS011;10975;47.872;12.972;2023-12-22T09:48:22;1.38;;;1.10;;
21626;SDS011;10975;47.872;12.972;2023-12-22T09:50:54;1.48;;;0.75;;
21626;SDS011;10975;47.872;12.972;2023-12-22T09:53:21;2.08;;;1.20;;
21626;SDS011;10975;47.872;12.972;2023-12-22T09:55:50;0.90;;;0.90;;
21626;SDS011;10975;47.872;12.972;2023-12-22T09:58:20;2.17;;;1.80;;
21626;SDS011;10975;47.872;12.972;2023-12-22T10:00:48;1.75;;;1.23;;
21626;SDS011;10975;47.872;12.972;2023-12-22T10:03:17;2.10;;;1.35;;
21626;SDS011;10975;47.872;12.972;2023-12-22T10:05:46;2.78;;;2.33;;
21626;SDS011;10975;47.872;12.972;2023-12-22T10:08:13;1.45;;;1.10;;
21626;SDS011;10975;47.872;12.972;2023-12-22T10:10:42;3.03;;;1.80;;
21626;SDS011;10975;47.872;12.972;2023-12-22T10:13:10;1.73;;;0.98;;
21626;SDS011;10975;47.872;12.972;2023-12-22T10:15:38;1.17;;;0.80;;
21626;SDS011;10975;47.872;12.972;2023-12-22T10:18:09;1.45;;;0.80;;
21626;SDS011;10975;47.872;12.972;2023-12-22T10:20:37;1.15;;;0.70;;
21626;SDS011;10975;47.872;12.972;2023-12-22T10:23:04;2.50;;;0.98;;
21626;SDS011;10975;47.872;12.972;2023-12-22T10:25:32;2.10;;;1.38;;
21626;SDS011;10975;47.872;12.972;2023-12-22T10:27:59;2.53;;;2.03;;
21626;SDS011;10975;47.872;12.972;2023-12-22T10:30:28;4.68;;;3.20;;
21626;SDS011;10975;47.872;12.972;2023-12-22T10:32:55;6.82;;;3.22;;
21626;SDS011;10975;47.872;12.972;2023-12-22T10:35:22;4.35;;;2.13;;
21626;SDS011;10975;47.872;12.972;2023-12-22T10:37:50;6.15;;;3.35;;
21626;SDS011;10975;47.872;12.972;2023-12-22T10:40:20;3.50;;;2.33;;
21626;SDS011;10975;47.872;12.972;2023-12-22T10:42:48;2.35;;;1.83;;
21626;SDS011;10975;47.872;12.972;2023-12-22T10:45:15;3.50;;;1.98;;
21626;SDS011;10975;47.872;12.972;2023-12-22T10:47:44;3.17;;;1.60;;
21626;SDS011;10975;47.872;12.972;2023-12-22T10:50:12;6.30;;;2.30;;
21626;SDS011;10975;47.872;12.972;2023-12-22T10:52:40;5.60;;;1.70;;
21626;SDS011;10975;47.872;12.972;2023-12-22T10:58:23;2.80;;;1.88;;
21626;SDS011;10975;47.872;12.972;2023-12-22T11:00:51;4.65;;;2.63;;
21626;SDS011;10975;47.872;12.972;2023-12-22T11:03:23;1.85;;;1.13;;
21626;SDS011;10975;47.872;12.972;2023-12-22T11:05:53;3.38;;;2.00;;
21626;SDS011;10975;47.872;12.972;2023-12-22T11:08:47;3.92;;;0.70;;
21626;SDS011;10975;47.872;12.972;2023-12-22T11:12:14;5.40;;;0.95;;
21626;SDS011;10975;47.872;12.972;2023-12-22T11:14:41;2.78;;;0.90;;
21626;SDS011;10975;47.872;12.972;2023-12-22T11:17:15;3.97;;;1.45;;
21626;SDS011;10975;47.872;12.972;2023-12-22T11:19:49;4.63;;;1.27;;
21626;SDS011;10975;47.872;12.972;2023-12-22T11:28:47;2.00;;;0.52;;
21626;SDS011;10975;47.872;12.972;2023-12-22T11:31:18;1.30;;;0.77;;
21626;SDS011;10975;47.872;12.972;2023-12-22T11:33:46;1.20;;;0.45;;
21626;SDS011;10975;47.872;12.972;2023-12-22T11:36:29;1.05;;;0.73;;
21626;SDS011;10975;47.872;12.972;2023-12-22T11:42:45;0.98;;;0.52;;
21626;SDS011;10975;47.872;12.972;2023-12-22T11:45:18;2.45;;;0.65;;
21626;SDS011;10975;47.872;12.972;2023-12-22T11:47:46;3.90;;;0.63;;
21626;SDS011;10975;47.872;12.972;2023-12-22T11:50:28;1.00;;;0.40;;
21626;SDS011;10975;47.872;12.972;2023-12-22T11:53:17;3.25;;;0.60;;
21626;SDS011;10975;47.872;12.972;2023-12-22T11:56:03;1.23;;;0.93;;
21626;SDS011;10975;47.872;12.972;2023-12-22T11:58:35;1.70;;;0.63;;
21626;SDS011;10975;47.872;12.972;2023-12-22T12:04:40;1.75;;;1.02;;
21626;SDS011;10975;47.872;12.972;2023-12-22T12:13:54;1.30;;;1.00;;
21626;SDS011;10975;47.872;12.972;2023-12-22T12:16:37;1.55;;;1.20;;
21626;SDS011;10975;47.872;12.972;2023-12-22T12:23:55;2.50;;;2.30;;
21626;SDS011;10975;47.872;12.972;2023-12-22T12:26:22;3.08;;;1.88;;
21626;SDS011;10975;47.872;12.972;2023-12-22T12:28:49;1.48;;;1.38;;
21626;SDS011;10975;47.872;12.972;2023-12-22T12:31:16;2.03;;;1.83;;
21626;SDS011;10975;47.872;12.972;2023-12-22T12:33:43;1.65;;;1.55;;
21626;SDS011;10975;47.872;12.972;2023-12-22T12:36:12;1.45;;;1.20;;
21626;SDS011;10975;47.872;12.972;2023-12-22T12:38:54;1.80;;;1.70;;
21626;SDS011;10975;47.872;12.972;2023-12-22T12:41:29;1.33;;;0.80;;
21626;SDS011;10975;47.872;12.972;2023-12-22T12:44:01;1.75;;;1.63;;
21626;SDS011;10975;47.872;12.972;2023-12-22T12:46:32;1.05;;;1.02;;
21626;SDS011;10975;47.872;12.972;2023-12-22T12:49:04;1.00;;;0.90;;
21626;SDS011;10975;47.872;12.972;2023-12-22T12:51:46;3.63;;;1.23;;
21626;SDS011;10975;47.872;12.972;2023-12-22T12:54:14;0.73;;;0.63;;
21626;SDS011;10975;47.872;12.972;2023-12-22T12:56:42;1.02;;;0.90;;
21626;SDS011;10975;47.872;12.972;2023-12-22T12:59:13;1.38;;;0.90;;
21626;SDS011;10975;47.872;12.972;2023-12-22T13:01:42;0.50;;;0.50;;
21626;SDS011;10975;47.872;12.972;2023-12-22T13:04:11;2.40;;;0.80;;
21626;SDS011;10975;47.872;12.972;2023-12-22T13:06:45;2.10;;;0.60;;
21626;SDS011;10975;47.872;12.972;2023-12-22T13:09:16;2.97;;;0.70;;
21626;SDS011;10975;47.872;12.972;2023-12-22T13:11:44;3.00;;;1.23;;
21626;SDS011;10975;47.872;12.972;2023-12-22T13:14:21;2.58;;;1.63;;
21626;SDS011;10975;47.872;12.972;2023-12-22T13:16:51;2.22;;;1.10;;
21626;SDS011;10975;47.872;12.972;2023-12-22T13:19:24;1.35;;;1.02;;
21626;SDS011;10975;47.872;12.972;2023-12-22T13:21:53;1.42;;;1.17;;
21626;SDS011;10975;47.872;12.972;2023-12-22T13:24:24;1.13;;;0.88;;
21626;SDS011;10975;47.872;12.972;2023-12-22T13:27:03;0.68;;;0.68;;
21626;SDS011;10975;47.872;12.972;2023-12-22T13:36:25;0.50;;;0.50;;
21626;SDS011;10975;47.872;12.972;2023-12-22T13:39:01;2.03;;;0.90;;
21626;SDS011;10975;47.872;12.972;2023-12-22T13:41:51;1.73;;;0.90;;
21626;SDS011;10975;47.872;12.972;2023-12-22T13:44:21;0.52;;;0.50;;
21626;SDS011;10975;47.872;12.972;2023-12-22T13:46:48;2.17;;;0.75;;
21626;SDS011;10975;47.872;12.972;2023-12-22T13:49:22;0.82;;;0.70;;
21626;SDS011;10975;47.872;12.972;2023-12-22T13:52:04;1.50;;;0.68;;
21626;SDS011;10975;47.872;12.972;2023-12-22T13:54:33;2.22;;;0.75;;
21626;SDS011;10975;47.872;12.972;2023-12-22T13:57:00;1.92;;;0.80;;
21626;SDS011;10975;47.872;12.972;2023-12-22T13:59:31;4.32;;;0.98;;
21626;SDS011;10975;47.872;12.972;2023-12-22T14:02:00;1.95;;;0.98;;
21626;SDS011;10975;47.872;12.972;2023-12-22T14:04:27;1.20;;;0.80;;
21626;SDS011;10975;47.872;12.972;2023-12-22T14:06:53;0.60;;;0.40;;
21626;SDS011;10975;47.872;12.972;2023-12-22T14:09:20;2.10;;;0.63;;
21626;SDS011;10975;47.872;12.972;2023-12-22T14:11:50;4.38;;;0.47;;
21626;SDS011;10975;47.872;12.972;2023-12-22T14:14:27;1.42;;;0.70;;
21626;SDS011;10975;47.872;12.972;2023-12-22T14:16:57;0.98;;;0.50;;
21626;SDS011;10975;47.872;12.972;2023-12-22T14:19:24;0.85;;;0.30;;
21626;SDS011;10975;47.872;12.972;2023-12-22T14:21:51;0.88;;;0.47;;
21626;SDS011;10975;47.872;12.972;2023-12-22T14:24:18;0.70;;;0.50;;
21626;SDS011;10975;47.872;12.972;2023-12-22T14:26:51;0.30;;;0.30;;
21626;SDS011;10975;47.872;12.972;2023-12-22T14:29:19;2.30;;;0.93;;
21626;SDS011;10975;47.872;12.972;2023-12-22T14:31:49;0.63;;;0.45;;
21626;SDS011;10975;47.872;12.972;2023-12-22T14:34:20;1.23;;;0.88;;
21626;SDS011;10975;47.872;12.972;2023-12-22T14:36:48;1.17;;;0.52;;
21626;SDS011;10975;47.872;12.972;2023-12-22T14:39:15;0.75;;;0.50;;
21626;SDS011;10975;47.872;12.972;2023-12-22T14:41:42;1.13;;;0.55;;
21626;SDS011;10975;47.872;12.972;2023-12-22T14:44:09;2.95;;;0.80;;
21626;SDS011;10975;47.872;12.972;2023-12-22T14:46:39;2.22;;;0.75;;
21626;SDS011;10975;47.872;12.972;2023-12-22T14:49:07;2.10;;;0.80;;
21626;SDS011;10975;47.872;12.972;2023-12-22T14:51:34;1.10;;;0.80;;
21626;SDS011;10975;47.872;12.972;2023-12-22T14:54:03;1.30;;;0.77;;
21626;SDS011;10975;47.872;12.972;2023-12-22T14:56:33;0.90;;;0.57;;
21626;SDS011;10975;47.872;12.972;2023-12-22T15:02:57;0.98;;;0.80;;
21626;SDS011;10975;47.872;12.972;2023-12-22T15:05:24;2.38;;;1.00;;
21626;SDS011;10975;47.872;12.972;2023-12-22T15:07:58;2.28;;;1.40;;
21626;SDS011;10975;47.872;12.972;2023-12-22T15:10:25;1.67;;;0.98;;
21626;SDS011;10975;47.872;12.972;2023-12-22T15:12:51;0.77;;;0.75;;
21626;SDS011;10975;47.872;12.972;2023-12-22T15:15:19;1.52;;;0.90;;
21626;SDS011;10975;47.872;12.972;2023-12-22T15:17:45;1.90;;;0.77;;
21626;SDS011;10975;47.872;12.972;2023-12-22T15:20:13;0.28;;;0.28;;
21626;SDS011;10975;47.872;12.972;2023-12-22T15:22:40;1.25;;;0.55;;
21626;SDS011;10975;47.872;12.972;2023-12-22T15:25:07;0.95;;;0.75;;
21626;SDS011;10975;47.872;12.972;2023-12-22T15:27:39;0.98;;;0.60;;
21626;SDS011;10975;47.872;12.972;2023-12-22T15:30:13;0.55;;;0.55;;
21626;SDS011;10975;47.872;12.972;2023-12-22T15:32:40;0.88;;;0.40;;
21626;SDS011;10975;47.872;12.972;2023-12-22T15:35:07;1.13;;;0.47;;
21626;SDS011;10975;47.872;12.972;2023-12-22T15:37:34;0.47;;;0.40;;
21626;SDS011;10975;47.872;12.972;2023-12-22T15:40:02;0.40;;;0.32;;
21626;SDS011;10975;47.872;12.972;2023-12-22T15:42:30;0.20;;;0.20;;
21626;SDS011;10975;47.872;12.972;2023-12-22T15:45:00;0.43;;;0.20;;
21626;SDS011;10975;47.872;12.972;2023-12-22T15:47:27;1.63;;;0.60;;
21626;SDS011;10975;47.872;12.972;2023-12-22T15:49:56;0.80;;;0.57;;
21626;SDS011;10975;47.872;12.972;2023-12-22T15:52:23;0.22;;;0.22;;
21626;SDS011;10975;47.872;12.972;2023-12-22T15:54:51;0.45;;;0.45;;
21626;SDS011;10975;47.872;12.972;2023-12-22T15:57:27;0.20;;;0.20;;
21626;SDS011;10975;47.872;12.972;2023-12-22T15:59:54;0.25;;;0.25;;
21626;SDS011;10975;47.872;12.972;2023-12-22T16:02:21;0.25;;;0.25;;
21626;SDS011;10975;47.872;12.972;2023-12-22T16:04:49;0.38;;;0.30;;